Sunday, March 24, 2019, 7:34 PM EDT
Back to Local

KHFD, Hartford-brainard Airport

Location: Hartford, CT, United States Lat: 41.733
Local Time: 7:34 PM EDT (23:34 GMT) Lon: -72.65
Time Zone: US/Eastern Elev: 19 ft

Show me the last for .
Show Decoded

2019-03-24 18:53 METAR KHFD 242253Z 19009KT 160V220 10SM CLR 11/M07 A2997 RMK AO2 SLP149
                 T01061067 =
2019-03-24 17:53 METAR KHFD 242153Z 19011G17KT 10SM CLR 13/M08 A2997 RMK AO2 SLP148 T01281078 =
2019-03-24 16:53 METAR KHFD 242053Z 19009KT 10SM CLR 12/M06 A2997 RMK AO2 SLP149 T01221056 56022
                 =
2019-03-24 15:53 METAR KHFD 241953Z 24007KT 10SM CLR 14/M09 A3000 RMK AO2 SLP157 T01391094 =
2019-03-24 14:53 METAR KHFD 241853Z 27007G12KT 10SM CLR 14/M09 A3001 RMK AO2 SLP161 T01391089 =
2019-03-24 13:53 METAR KHFD 241753Z 23008KT 180V260 10SM CLR 13/M09 A3004 RMK AO2 SLP172
                 T01331089 10139 20011 58028 =
2019-03-24 12:53 METAR KHFD 241653Z VRB05KT 10SM CLR 12/M09 A3008 RMK AO2 SLP184 T01221089 =
2019-03-24 11:53 METAR KHFD 241553Z 25008KT 10SM CLR 11/M09 A3010 RMK AO2 SLP193 T01061094 =
2019-03-24 10:53 METAR KHFD 241453Z VRB04KT 10SM CLR 09/M08 A3012 RMK AO2 SLP200 T00891083 58007
                 =
2019-03-24 09:53 METAR KHFD 241353Z 20005KT 10SM CLR 06/M07 A3014 RMK AO2 SLP207 T00561072 =
2019-03-24 08:53 METAR KHFD 241253Z 24005KT 10SM CLR 04/M08 A3015 RMK AO2 SLP209 T00391078 =
2019-03-24 07:53 METAR KHFD 241153Z 00000KT 10SM CLR 01/M08 A3014 RMK AO2 SLP207 T00061078 10017
                 21022 53004 =
2019-03-24 06:53 METAR KHFD 241053Z 15003KT 10SM CLR M02/M08 A3014 RMK AO2 SLP204 T10171078 =
2019-03-24 05:53 METAR KHFD 240953Z 17004KT 10SM CLR M01/M08 A3014 RMK AO2 SLP204 T10111083 =
2019-03-24 04:53 METAR KHFD 240853Z AUTO 29004KT 10SM CLR 02/M10 A3013 RMK AO2 SLP203 T00171100
                 51010 =
2019-03-24 03:53 METAR KHFD 240753Z AUTO 31003KT 10SM CLR 01/M11 A3013 RMK AO2 SLP201 T00111106 =
2019-03-24 02:53 METAR KHFD 240653Z AUTO VRB03KT 10SM CLR 01/M11 A3012 RMK AO2 SLP199 T00111111 =
2019-03-24 01:53 METAR KHFD 240553Z AUTO 00000KT 10SM CLR 01/M12 A3010 RMK AO2 SLP193 T00111122
                 10028 20011 50008 =
2019-03-24 00:53 METAR KHFD 240453Z AUTO 30009KT 10SM CLR 02/M13 A3010 RMK AO2 SLP193 T00171128
                 400720000 =
2019-03-23 23:53 METAR KHFD 240353Z 33006KT 10SM CLR 02/M12 A3010 RMK AO2 SLP191 T00171122 =
2019-03-23 22:53 METAR KHFD 240253Z 33006KT 10SM CLR 01/M12 A3008 RMK AO2 SLP185 T00111117 51027
                 =
2019-03-23 21:53 METAR KHFD 240153Z 31011G17KT 10SM CLR 02/M12 A3006 RMK AO2 SLP179 T00171117 =
2019-03-23 20:53 METAR KHFD 240053Z 31012G17KT 10SM CLR 02/M12 A3004 RMK AO2 SLP171 T00221117 =
2019-03-23 19:53 METAR KHFD 232353Z 31009KT 10SM CLR 03/M12 A3000 RMK AO2 SLP158 T00281117 10072
                 20028 53044 =

Support USWX by starting your Amazon purchase here.